Terminal Aerodrome Forecast
Issued by NWS Los Angeles, CA

Current Version | Previous Version | Text Only | Print | Product List | Glossary On
Versions: 1 2 3 4 5 6 7 8 9 10 11 12 13 14 15 16 17 18 19 20 21
000
FTUS46 KLOX 200600 AAD
TAFSMX
TAF AMD
KSMX 200650Z 2007/2106 VRB05KT P6SM SCT004 BKN009
     FM200900 VRB03KT 4SM -DZ OVC004
     FM201700 VRB03KT P6SM OVC015
     FM202000 30012KT P6SM BKN025
     FM210400 VRB05KT P6SM OVC020=

USA.gov is the U.S. government's official web portal to all federal, state and local government web resources and services.